Weather observations for the past three days for
Manhattan, Manhattan Municipal Airport
Imperial (Metric)
Date Time (cdt) Wind (mph) Vis. (mi.) Weather Sky Cond. Temperature (ºF) Relative Humidity Wind Chill (°F) Heat Index (°F) Pressure Precipitation (in)
Air Dwpt 6 hour altimeter (in) sea level (mb) 1 hr 3 hr 6 hr
Max. Min.
06 14:52 Calm 10.00 Fair CLR 96.1 66.9 39% 100 29.92 1012.0
06 13:52 Calm 10.00 Fair CLR 95 66.9 40% 99 29.95 1012.8
06 12:52 Calm 10.00 Fair CLR 93 68 93 69.1 44% 97 29.98 1014.0
06 11:52 Calm 10.00 Fair CLR 91 68 47% 95 30.01 1015.1
06 10:52 Calm 10.00 Fair CLR 88 71.1 57% 94 30 1014.8
06 09:52 Calm 10.00 Fair CLR 84.9 69.1 59% 89 30 1014.6
06 08:52 Calm 10.00 Fair CLR 82 70 67% 86 29.99 1014.5
06 07:52 Calm 10.00 Fair CLR 75 69.1 82% 75 29.98 1013.9
06 06:52 Calm 10.00 Fair CLR 71.1 66.9 78.1 70 87% 29.96 1013.2
06 05:52 Calm 10.00 Fair CLR 71.1 66 84% 29.95 1012.9
06 04:52 Calm 10.00 Fair CLR 72 66.9 84% 29.94 1012.6
06 03:52 Calm 10.00 Fair CLR 73 66.9 81% 29.94 1012.6
06 02:52 W 3 10.00 Fair CLR 75 66.9 76% 76 29.93 1012.1
06 01:52 Calm 10.00 Fair CLR 77 66.9 71% 79 29.93 1012.2
06 00:52 N 3 10.00 Fair CLR 77 68 91.9 73.9 74% 79 29.94 1012.5
05 23:52 Calm 10.00 Fair CLR 77 68 74% 79 29.94 1012.5
05 22:52 Calm 10.00 Fair CLR 79 68 69% 81 29.93 1012.2
05 21:52 Calm 10.00 Fair CLR 80.1 69.1 69% 83 29.91 1011.8
05 20:52 Calm 10.00 Fair CLR 84 69.1 61% 88 29.88 1010.6
05 19:52 N 3 10.00 Fair CLR 86 72 63% 92 29.87 1010.3
05 18:52 Calm 10.00 Fair CLR 91.9 72 100.9 91.9 52% 100 29.87 1010.3
05 17:52 E 6 10.00 Fair CLR 95 69.1 43% 101 29.88 1010.4
05 16:52 SE 5 10.00 Fair CLR 97 69.1 40% 103 29.88 1010.5
05 15:52 SE 9 10.00 Fair CLR 100 68 35% 106 29.89 1011.0
05 12:52 SW 12 10.00 Fair CLR 98.1 68 100 71.1 38% 103 29.95 1012.7
05 11:52 S 10 10.00 Fair CLR 97 68 39% 102 29.96 1013.3
05 10:52 SW 8 10.00 Fair CLR 93 69.1 46% 98 29.95 1013.1
05 09:52 S 5 10.00 Fair CLR 88 69.1 54% 92 29.95 1012.7
05 08:52 Calm 10.00 Fair CLR 84 70 63% 88 29.94 1012.5
05 07:52 Calm 10.00 Fair CLR 75.9 70 82% 77 29.92 1012.1
05 06:52 Calm 10.00 Fair CLR 72 68 81 72 87% 29.91 1011.5
05 05:52 SW 7 10.00 Fair CLR 75.9 66.9 74% 77 29.91 1011.4
05 04:52 SW 3 10.00 Fair CLR 73 68 84% 29.91 1011.5
05 03:52 Calm 10.00 Fair CLR 73.9 68 82% 29.92 1011.8
05 02:52 Calm 10.00 Fair CLR 75 68 79% 76 29.92 1011.9
05 01:52 S 5 10.00 Fair CLR 80.1 68 67% 83 29.92 1011.7
05 00:52 Calm 10.00 Fair CLR 80.1 68 93.9 77 67% 83 29.92 1011.7
04 23:52 Calm 10.00 Fair CLR 77 68 74% 79 29.91 1011.6
04 22:52 S 3 10.00 Fair CLR 79 68 69% 81 29.9 1011.3
04 21:52 Calm 10.00 Fair CLR 81 69.1 67% 84 29.89 1011.1
04 19:52 SE 3 10.00 Fair CLR 88 70 55% 93 29.87 1010.2
04 18:52 SE 7 10.00 Fair CLR 93.9 69.1 100 93.9 44% 99 29.86 1010.1
04 17:52 SE 8 10.00 Fair CLR 98.1 68 38% 103 29.87 1010.3
04 16:52 SE 10 10.00 Fair CLR 99 69.1 38% 105 29.87 1010.2
04 15:52 S 9 G 18 10.00 Fair CLR 99 69.1 38% 105 29.88 1010.5
04 14:52 S 9 10.00 Fair CLR 99 70 39% 106 29.89 1010.9
04 13:52 S 9 G 18 10.00 Fair CLR 96.1 70 43% 103 29.9 1011.2
04 12:52 SW 13 G 21 10.00 Fair CLR 95 72 95 71.1 47% 103 29.92 1011.7
04 10:52 SW 10 10.00 Fair CLR 90 72 56% 97 29.92 1012.0
04 09:52 SW 9 10.00 Fair CLR 84.9 71.1 63% 90 29.93 1012.2
04 08:52 S 6 10.00 Fair CLR 80.1 70 71% 83 29.93 1012.2
04 07:52 Calm 10.00 Fair CLR 75.9 69.1 79% 77 29.92 1012.0
04 06:52 S 3 10.00 Fair CLR 73 66.9 84 71.1 81% 29.9 1011.3
04 05:52 SW 3 10.00 Fair CLR 73.9 68 82% 29.89 1011.0
04 04:52 SW 6 10.00 Fair CLR 75.9 68 77% 77 29.89 1010.7
04 03:52 SW 8 10.00 Fair CLR 79 68 69% 81 29.88 1010.3
04 02:52 SW 10 10.00 Fair CLR 81 69.1 67% 84 29.88 1010.3
04 01:52 SW 10 10.00 Fair CLR 82.9 69.1 63% 87 29.87 1010.2
04 00:52 SW 12 G 21 10.00 Fair CLR 84 68 95 78.1 59% 87 29.87 1010.2
03 23:52 S 8 10.00 Fair CLR 84.9 68 57% 88 29.86 1009.9
03 22:52 S 6 10.00 Fair CLR 82.9 66.9 59% 86 29.86 1009.9
03 21:52 Calm 10.00 Fair CLR 78.1 68 71% 80 29.85 1009.5
03 20:52 Calm 10.00 Fair CLR 81 68 65% 84 29.82 1008.6
03 19:52 S 5 10.00 Fair CLR 89.1 68 50% 93 29.8 1007.9
03 18:52 S 8 10.00 Fair CLR 95 66 100 95 39% 98 29.8 1007.7
03 17:52 S 14 G 22 10.00 Fair CLR 99 64 32% 102 29.79 1007.4
03 16:52 S 14 10.00 Fair CLR 99 64 32% 102 29.79 1007.4
03 15:52 S 18 G 25 10.00 Fair CLR 99 66.9 35% 104 29.81 1007.9
Date Time (cdt) Wind (mph) Vis. (mi.) Weather Sky Cond. Air Dwpt Max. Min. Relative Humidity Wind Chill (°F) Heat Index (°F) altimeter (in) sea level (mb) 1 hr 3 hr 6 hr
6 hour
Temperature (ºF) Pressure Precipitation (in)